Observations for Trim Market St
| Time | AQI | Temp °C | Hum % | Pres Pa | CO μg/m³ | H₂S μg/m³ | NO μg/m³ | NO₂ μg/m³ | O₃ μg/m³ | SO₂ μg/m³ | PM1 μg/m³ | PM2.5 μg/m³ | PM10 μg/m³ |
|---|---|---|---|---|---|---|---|---|---|---|---|---|---|
| Sunday 12 July 2026 | |||||||||||||
| 16:12 | 1 | 34.5 | 32 | 66,406 | 0 | 0 | 0 | 0 | 32.11 | 0 | 2.14 | 4.86 | 5.34 |
| 16:08 | 1 | 34.6 | 32 | 66,368 | 0 | 0 | 0 | 0 | 33.77 | 0 | 1.43 | 4.85 | 4.97 |
| 16:05 | 1 | 34.6 | 32 | 66,376 | 0 | 0 | 0 | 0.43 | 40.33 | 0 | 2.14 | 4.86 | 5.34 |
| 16:04 | 1 | 34.5 | 32 | 66,398 | 0 | 0 | 0 | 2.66 | 34.37 | 0 | 1.43 | 5.4 | 6.67 |
| 15:58 | 1 | 34.7 | 32 | 66,388 | 0 | 0 | 0 | 0 | 24.73 | 0 | 2.85 | 6.49 | 6.67 |
| 15:55 | 1 | 34.8 | 32 | 66,386 | 0 | 0 | 0 | 0 | 25.26 | 0 | 2.85 | 6.49 | 6.67 |
| 15:49 | 1 | 34.7 | 32 | 66,412 | 0 | 0 | 0 | 0.76 | 32.92 | 0 | 3.56 | 6.46 | 6.67 |
| 15:48 | 1 | 34.7 | 32 | 66,408 | 0 | 0 | 0 | 0 | 25.55 | 0 | 2.14 | 5.38 | 5.91 |
| 15:47 | 1 | 34.6 | 32 | 66,374 | 0 | 0 | 0 | 9.55 | 33.65 | 0 | 2.85 | 5.91 | 6.5 |
| 15:46 | 1 | 34.6 | 32 | 66,362 | 0 | 0 | 0 | 0.48 | 35.53 | 0 | 2.14 | 5.38 | 6.67 |
| 15:45 | 1 | 34.5 | 32 | 66,353 | 0 | 0 | 0 | 0.6 | 28.09 | 0 | 2.14 | 6.45 | 6.67 |
| 15:44 | 1 | 34.5 | 32 | 66,339 | 0 | 0 | 0 | 3.19 | 33.82 | 0 | 3.56 | 6.45 | 7.52 |
| 15:43 | 1 | 34.5 | 32 | 66,351 | 0 | 0 | 0 | 1.49 | 32.76 | 0 | 3.56 | 5.91 | 6.67 |
| 15:42 | 1 | 34.4 | 32 | 66,337 | 0 | 0 | 0 | 2.72 | 38.74 | 0 | 2.14 | 5.37 | 5.91 |
| 15:41 | 1 | 34.4 | 32 | 66,349 | 0 | 0 | 0 | 2.73 | 35.11 | 0 | 3.56 | 6.45 | 6.67 |
| 15:40 | 1 | 34.4 | 32 | 66,360 | 0 | 0 | 0 | 0 | 39.97 | 0 | 2.14 | 5.38 | 6.67 |
| 15:39 | 1 | 34.4 | 32 | 66,351 | 0 | 0 | 0 | 2.04 | 37.02 | 0 | 2.85 | 5.92 | 6.51 |
| 15:38 | 1 | 34.3 | 32 | 66,341 | 0 | 0 | 0 | 0.68 | 32.66 | 0 | 2.14 | 4.84 | 5.82 |
| 15:37 | 1 | 34.3 | 32 | 66,329 | 0 | 0 | 0 | 2.88 | 34.22 | 0 | 2.14 | 5.38 | 7.52 |
| 15:36 | 1 | 34.3 | 32 | 66,335 | 0 | 0 | 0 | 0.38 | 29.31 | 0 | 2.14 | 4.84 | 5.82 |